createdAt,value
2017-11-19T00:00:55.304Z,21.20
2017-11-19T00:03:23.131Z,21.10
2017-11-19T00:05:50.917Z,21.00
2017-11-19T00:08:18.762Z,21.00
2017-11-19T00:10:46.552Z,21.00
2017-11-19T00:13:14.321Z,21.00
2017-11-19T00:15:42.107Z,20.90
2017-11-19T00:18:09.989Z,20.90
2017-11-19T00:20:37.778Z,20.90
2017-11-19T00:23:05.597Z,20.90
2017-11-19T00:25:34.166Z,20.90
2017-11-19T00:28:01.995Z,20.90
2017-11-19T00:30:29.875Z,20.80
2017-11-19T00:32:57.681Z,20.80
2017-11-19T00:35:25.452Z,20.70
2017-11-19T00:37:53.223Z,20.70
2017-11-19T00:40:21.031Z,20.60
2017-11-19T00:42:49.783Z,20.70
2017-11-19T00:45:17.553Z,20.70
2017-11-19T00:47:45.294Z,20.50
2017-11-19T00:50:13.094Z,20.30
2017-11-19T00:52:40.902Z,19.90
2017-11-19T00:55:08.765Z,19.60
2017-11-19T00:57:36.518Z,19.50
2017-11-19T01:00:04.291Z,19.80
2017-11-19T01:02:32.126Z,20.10
2017-11-19T01:04:59.996Z,20.10
2017-11-19T01:07:27.824Z,20.10
2017-11-19T01:09:55.560Z,20.10
2017-11-19T01:12:23.358Z,20.20
2017-11-19T01:14:51.257Z,20.30
2017-11-19T01:17:19.000Z,20.00
2017-11-19T01:19:46.769Z,19.40
2017-11-19T01:22:14.625Z,19.40
2017-11-19T01:24:42.433Z,19.60
2017-11-19T01:27:10.254Z,19.90
2017-11-19T01:29:38.805Z,19.60
2017-11-19T01:32:06.596Z,19.50
2017-11-19T01:34:34.417Z,19.50
2017-11-19T01:37:02.297Z,19.40
2017-11-19T01:39:30.069Z,19.40
2017-11-19T01:41:58.618Z,19.90
2017-11-19T01:44:26.479Z,19.80
2017-11-19T01:46:54.272Z,19.90
2017-11-19T01:49:22.080Z,19.50
2017-11-19T01:51:49.959Z,19.20
2017-11-19T01:54:17.777Z,18.70
2017-11-19T01:56:45.590Z,18.70
2017-11-19T01:59:13.701Z,18.60
2017-11-19T02:01:41.564Z,18.90
2017-11-19T02:04:09.338Z,19.10
2017-11-19T02:06:37.105Z,19.30
2017-11-19T02:09:04.929Z,19.40
2017-11-19T02:11:32.652Z,19.50
2017-11-19T02:14:00.530Z,19.70
2017-11-19T02:16:28.272Z,19.70
2017-11-19T02:18:56.066Z,19.80
2017-11-19T02:21:23.925Z,19.80
2017-11-19T02:23:51.699Z,19.80
2017-11-19T02:26:19.475Z,19.90
2017-11-19T02:28:48.253Z,19.80
2017-11-19T02:31:16.048Z,19.70
2017-11-19T02:33:43.796Z,19.80
2017-11-19T02:36:11.636Z,19.80
2017-11-19T02:38:39.418Z,19.80
2017-11-19T02:41:07.152Z,19.80
2017-11-19T02:43:34.933Z,19.80
2017-11-19T02:46:02.691Z,19.80
2017-11-19T02:48:30.511Z,19.70
2017-11-19T02:50:58.318Z,19.80
2017-11-19T02:53:26.146Z,19.70
2017-11-19T02:55:54.668Z,19.70
2017-11-19T02:58:22.546Z,19.70
2017-11-19T03:00:50.327Z,19.70
2017-11-19T03:03:18.068Z,19.70
2017-11-19T03:05:45.992Z,19.60
2017-11-19T03:08:13.825Z,19.60
2017-11-19T03:10:41.611Z,19.60
2017-11-19T03:13:09.415Z,19.60
2017-11-19T03:15:37.159Z,19.60
2017-11-19T03:18:04.948Z,19.60
2017-11-19T03:20:32.830Z,19.60
2017-11-19T03:23:00.593Z,19.60
2017-11-19T03:25:30.002Z,19.50
2017-11-19T03:27:57.796Z,19.40
2017-11-19T03:30:25.609Z,19.40
2017-11-19T03:32:53.434Z,19.30
2017-11-19T03:35:21.241Z,19.20
2017-11-19T03:37:49.829Z,19.00
2017-11-19T03:40:17.642Z,18.90
2017-11-19T03:42:45.400Z,18.60
2017-11-19T03:45:13.235Z,18.90
2017-11-19T03:47:41.837Z,19.10
2017-11-19T03:50:09.644Z,19.10
2017-11-19T03:52:37.683Z,19.20
2017-11-19T03:55:05.492Z,19.30
2017-11-19T03:57:33.323Z,19.10
2017-11-19T04:00:01.195Z,19.10
2017-11-19T04:02:29.107Z,19.00
2017-11-19T04:04:56.972Z,19.00
2017-11-19T04:07:24.727Z,19.20
2017-11-19T04:09:52.566Z,19.20
2017-11-19T04:12:20.345Z,19.20
2017-11-19T04:14:48.152Z,19.20
2017-11-19T04:17:16.090Z,19.20
2017-11-19T04:19:43.886Z,19.20
2017-11-19T04:22:11.726Z,19.20
2017-11-19T04:24:40.017Z,19.10
2017-11-19T04:27:07.788Z,19.00
2017-11-19T04:29:35.653Z,18.90
2017-11-19T04:32:03.540Z,19.00
2017-11-19T04:34:31.330Z,19.00
2017-11-19T04:36:59.883Z,19.10
2017-11-19T04:39:27.638Z,19.10
2017-11-19T04:41:55.565Z,19.10
2017-11-19T04:44:23.381Z,19.10
2017-11-19T04:46:51.271Z,19.10
2017-11-19T04:49:19.978Z,19.10
2017-11-19T04:51:47.801Z,19.20
2017-11-19T04:54:15.591Z,19.20
2017-11-19T04:56:43.346Z,19.20
2017-11-19T04:59:11.185Z,19.30
2017-11-19T05:01:39.014Z,19.40
2017-11-19T05:04:06.788Z,19.50
2017-11-19T05:06:34.565Z,19.50
2017-11-19T05:09:02.471Z,19.60
2017-11-19T05:11:30.294Z,19.60
2017-11-19T05:13:58.907Z,19.80
2017-11-19T05:16:26.645Z,19.70
2017-11-19T05:18:54.474Z,19.80
2017-11-19T05:21:22.254Z,19.90
2017-11-19T05:23:50.031Z,20.00
2017-11-19T05:26:17.805Z,20.10
2017-11-19T05:28:46.462Z,20.30
2017-11-19T05:31:14.263Z,20.20
2017-11-19T05:33:42.808Z,20.40
2017-11-19T05:36:10.641Z,20.30
2017-11-19T05:38:38.396Z,20.40
2017-11-19T05:41:06.215Z,20.50
2017-11-19T05:43:34.007Z,20.60
2017-11-19T05:46:02.510Z,20.80
2017-11-19T05:48:30.312Z,20.70
2017-11-19T05:50:58.104Z,20.80
2017-11-19T05:53:25.895Z,20.90
2017-11-19T05:55:53.686Z,20.90
2017-11-19T05:58:21.466Z,21.00
2017-11-19T06:00:49.191Z,21.00
2017-11-19T06:03:17.091Z,21.10
2017-11-19T06:05:44.859Z,20.60
2017-11-19T06:08:12.602Z,20.40
2017-11-19T06:10:40.358Z,20.80
2017-11-19T06:13:08.089Z,21.10
2017-11-19T06:15:35.979Z,21.30
2017-11-19T06:18:03.831Z,21.40
2017-11-19T06:20:31.649Z,21.50
2017-11-19T06:23:00.222Z,21.60
2017-11-19T06:25:27.941Z,21.60
2017-11-19T06:27:55.752Z,21.70
2017-11-19T06:30:23.539Z,21.70
2017-11-19T06:32:51.275Z,21.70
2017-11-19T06:35:19.010Z,21.80
2017-11-19T06:37:46.891Z,21.80
2017-11-19T06:40:14.743Z,21.80
2017-11-19T06:42:42.553Z,21.80
2017-11-19T06:45:10.389Z,21.80
2017-11-19T06:47:38.129Z,21.80
2017-11-19T06:50:06.006Z,21.80
2017-11-19T06:52:33.871Z,21.90
2017-11-19T06:55:01.627Z,21.90
2017-11-19T06:57:29.401Z,21.90
2017-11-19T06:59:57.189Z,21.90
2017-11-19T07:02:24.976Z,21.90
2017-11-19T07:04:52.751Z,21.90
2017-11-19T07:07:20.515Z,21.90
2017-11-19T07:09:48.328Z,22.00
2017-11-19T07:12:16.107Z,22.00
2017-11-19T07:14:44.059Z,22.00
2017-11-19T07:17:11.836Z,22.00
2017-11-19T07:19:39.589Z,22.00
2017-11-19T07:22:07.485Z,22.10
2017-11-19T07:24:35.218Z,22.10
2017-11-19T07:27:03.794Z,22.10
2017-11-19T07:29:31.614Z,22.10
2017-11-19T07:31:59.446Z,22.10
2017-11-19T07:34:27.983Z,22.20
2017-11-19T07:36:55.815Z,22.10
2017-11-19T07:39:23.567Z,22.20
2017-11-19T07:41:51.313Z,22.20
2017-11-19T07:44:19.958Z,22.30
2017-11-19T07:46:47.777Z,22.30
2017-11-19T07:49:15.602Z,22.30
2017-11-19T07:51:43.465Z,22.30
2017-11-19T07:54:11.828Z,22.30
2017-11-19T07:56:40.533Z,22.50
2017-11-19T07:59:08.352Z,22.50
2017-11-19T08:01:36.187Z,22.50
2017-11-19T08:04:04.921Z,22.50
2017-11-19T08:06:34.029Z,22.50
2017-11-19T08:09:02.326Z,22.50
2017-11-19T08:11:31.387Z,22.50
2017-11-19T08:13:59.946Z,22.50
2017-11-19T08:16:27.722Z,22.50
2017-11-19T08:18:55.615Z,22.50
2017-11-19T08:21:23.466Z,22.50
2017-11-19T08:23:55.075Z,22.50
2017-11-19T08:26:22.845Z,22.50
2017-11-19T08:28:50.739Z,22.60
2017-11-19T08:31:18.585Z,22.60
2017-11-19T08:33:46.472Z,22.70
2017-11-19T08:36:14.321Z,22.70
2017-11-19T08:38:43.117Z,22.70
2017-11-19T08:41:10.912Z,22.60
2017-11-19T08:43:38.665Z,22.20
2017-11-19T08:46:06.381Z,21.60
2017-11-19T08:48:34.239Z,21.40
2017-11-19T08:51:02.059Z,21.30
2017-11-19T08:53:29.809Z,20.60
2017-11-19T08:55:57.653Z,20.40
2017-11-19T08:58:25.485Z,20.40
2017-11-19T09:00:53.300Z,20.80
2017-11-19T09:03:21.162Z,21.60
2017-11-19T09:05:48.919Z,21.90
2017-11-19T09:08:16.726Z,21.20
2017-11-19T09:10:44.589Z,20.20
2017-11-19T09:13:12.356Z,19.70
2017-11-19T09:15:40.174Z,19.10
2017-11-19T09:18:07.982Z,19.10
2017-11-19T09:20:35.959Z,19.40
2017-11-19T09:23:03.813Z,20.00
2017-11-19T09:25:31.793Z,20.10
2017-11-19T09:27:59.632Z,20.10
2017-11-19T09:30:30.201Z,19.50
2017-11-19T09:33:45.220Z,19.40
2017-11-19T09:36:25.407Z,19.10
2017-11-19T09:38:53.489Z,19.90
2017-11-19T09:41:25.500Z,19.80
2017-11-19T09:43:57.174Z,19.30
2017-11-19T09:46:25.858Z,20.00
2017-11-19T09:48:53.755Z,21.10
2017-11-19T09:51:22.500Z,21.40
2017-11-19T09:57:16.196Z,19.70
2017-11-19T09:59:44.102Z,19.80
2017-11-19T10:02:12.697Z,19.90
2017-11-19T10:04:41.735Z,19.80
2017-11-19T10:07:10.506Z,19.60
2017-11-19T10:16:26.089Z,19.80
2017-11-19T10:18:56.341Z,18.10
2017-11-19T10:21:41.616Z,18.10
2017-11-19T10:24:09.666Z,17.60
2017-11-19T10:26:37.558Z,18.10
2017-11-19T10:29:05.636Z,18.10
2017-11-19T10:31:33.830Z,19.00
2017-11-19T10:34:02.429Z,18.50
2017-11-19T10:36:31.462Z,18.10
2017-11-19T10:42:17.430Z,17.80
2017-11-19T10:44:45.555Z,18.20
2017-11-19T10:50:21.641Z,18.30
2017-11-19T10:52:56.439Z,19.20
2017-11-19T10:55:25.127Z,19.30
2017-11-19T10:57:53.043Z,18.90
2017-11-19T11:00:21.851Z,19.10
2017-11-19T11:03:03.304Z,19.00
2017-11-19T11:08:56.336Z,16.90
2017-11-19T11:11:24.278Z,18.40
2017-11-19T11:13:52.226Z,18.50
2017-11-19T11:16:20.056Z,18.60
2017-11-19T11:18:47.913Z,19.10
2017-11-19T11:21:16.192Z,19.10
2017-11-19T11:23:44.810Z,18.70
2017-11-19T11:26:39.060Z,18.10
2017-11-19T11:29:09.206Z,17.80
2017-11-19T11:31:37.001Z,18.80
2017-11-19T11:47:10.324Z,19.70
2017-11-19T11:49:40.526Z,19.00
2017-11-19T11:52:08.386Z,18.90
2017-11-19T11:54:36.275Z,18.90
2017-11-19T11:57:04.141Z,19.00
2017-11-19T11:59:32.015Z,18.90
2017-11-19T12:01:59.812Z,19.40
2017-11-19T12:04:27.681Z,19.20
2017-11-19T12:06:55.496Z,19.30
2017-11-19T12:09:23.293Z,19.20
2017-11-19T12:11:51.105Z,19.50
2017-11-19T12:14:18.953Z,19.50
2017-11-19T12:16:46.980Z,19.30
2017-11-19T12:19:15.652Z,19.70
2017-11-19T12:25:09.220Z,19.00
2017-11-19T12:27:37.163Z,19.00
2017-11-19T12:30:07.635Z,19.50
2017-11-19T12:32:35.571Z,19.50
2017-11-19T12:35:04.201Z,19.50
2017-11-19T12:37:33.913Z,19.50
2017-11-19T12:40:01.896Z,19.50
2017-11-19T12:42:29.730Z,19.60
2017-11-19T12:44:57.646Z,19.80
2017-11-19T12:47:25.471Z,19.90
2017-11-19T12:49:53.317Z,19.90
2017-11-19T12:52:21.184Z,19.90
2017-11-19T12:54:49.222Z,20.40
2017-11-19T12:57:17.091Z,20.90
2017-11-19T12:59:44.994Z,21.00
2017-11-19T13:02:12.782Z,20.80
2017-11-19T13:04:40.651Z,20.90
2017-11-19T13:07:11.834Z,20.60
2017-11-19T13:09:39.684Z,20.80
2017-11-19T13:12:07.429Z,20.70
2017-11-19T13:14:35.260Z,20.60
2017-11-19T13:17:03.743Z,21.00
2017-11-19T13:19:32.250Z,21.10
2017-11-19T13:22:00.851Z,20.70
2017-11-19T13:24:28.647Z,20.70
2017-11-19T13:26:56.571Z,20.70
2017-11-19T13:29:24.465Z,20.80
2017-11-19T13:31:52.311Z,20.90
2017-11-19T13:34:20.969Z,20.70
2017-11-19T13:36:48.756Z,20.70
2017-11-19T13:39:17.953Z,21.20
2017-11-19T13:41:45.771Z,21.20
2017-11-19T13:44:14.410Z,21.30
2017-11-19T13:46:42.185Z,21.60
2017-11-19T13:49:10.821Z,21.60
2017-11-19T13:51:38.592Z,21.40
2017-11-19T13:54:06.476Z,21.20
2017-11-19T13:56:34.250Z,21.30
2017-11-19T13:59:02.059Z,20.60
2017-11-19T14:01:30.008Z,20.70
2017-11-19T14:03:57.782Z,20.60
2017-11-19T14:06:25.615Z,21.00
2017-11-19T14:08:53.535Z,21.10
2017-11-19T14:11:21.311Z,21.30
2017-11-19T14:13:49.118Z,21.40
2017-11-19T14:16:17.298Z,21.40
2017-11-19T14:18:45.215Z,21.00
2017-11-19T14:21:13.261Z,20.50
2017-11-19T14:23:41.874Z,20.60
2017-11-19T14:26:09.740Z,20.70
2017-11-19T14:28:37.663Z,20.60
2017-11-19T14:31:05.610Z,20.50
2017-11-19T14:33:33.483Z,19.90
2017-11-19T14:36:03.241Z,20.30
2017-11-19T14:38:32.596Z,20.20
2017-11-19T14:41:00.555Z,20.10
2017-11-19T14:50:30.307Z,19.20
2017-11-19T15:10:28.651Z,18.50
2017-11-19T15:12:56.657Z,18.60
2017-11-19T15:15:24.721Z,18.70
2017-11-19T15:17:52.691Z,18.60
2017-11-19T15:27:30.584Z,17.60
2017-11-19T15:30:00.184Z,17.30
2017-11-19T15:32:29.653Z,17.00
2017-11-19T15:38:14.909Z,16.70
2017-11-19T15:40:42.805Z,18.40
2017-11-19T15:43:10.825Z,19.50
2017-11-19T15:45:38.958Z,19.90
2017-11-19T15:48:07.119Z,20.50
2017-11-19T15:50:35.080Z,21.20
2017-11-19T15:53:03.216Z,21.70
2017-11-19T15:55:32.444Z,21.90
2017-11-19T15:58:00.641Z,21.80
2017-11-19T16:03:01.938Z,22.00
2017-11-19T16:05:29.986Z,22.00
2017-11-19T16:07:57.977Z,22.10
2017-11-19T16:10:26.098Z,22.20
2017-11-19T16:12:53.922Z,22.30
2017-11-19T16:15:21.768Z,22.40
2017-11-19T16:17:49.762Z,22.40
2017-11-19T16:20:17.604Z,22.50
2017-11-19T16:22:48.119Z,22.60
2017-11-19T16:28:47.021Z,19.90
2017-11-19T16:31:14.843Z,20.20
2017-11-19T16:33:42.675Z,21.20
2017-11-19T16:36:11.534Z,21.70
2017-11-19T16:38:39.620Z,22.00
2017-11-19T16:41:07.504Z,22.30
2017-11-19T16:43:35.369Z,22.40
2017-11-19T16:46:04.041Z,22.50
2017-11-19T16:48:31.936Z,22.50
2017-11-19T16:51:00.020Z,22.50
2017-11-19T16:53:28.337Z,22.60
2017-11-19T16:55:56.385Z,22.60
2017-11-19T16:58:24.549Z,22.50
2017-11-19T17:00:52.574Z,22.50
2017-11-19T17:03:20.488Z,22.50
2017-11-19T17:05:49.672Z,22.50
2017-11-19T17:08:37.522Z,22.60
2017-11-19T17:13:41.751Z,22.80
2017-11-19T17:16:22.149Z,22.80
2017-11-19T17:18:53.599Z,22.80
2017-11-19T17:21:21.780Z,22.80
2017-11-19T17:23:49.730Z,22.80
2017-11-19T17:26:19.016Z,22.70
2017-11-19T17:31:28.451Z,22.60
2017-11-19T17:33:56.386Z,22.70
2017-11-19T17:36:29.972Z,22.60
2017-11-19T17:38:57.863Z,22.60
2017-11-19T17:41:25.971Z,22.70
2017-11-19T17:43:55.025Z,22.60
2017-11-19T17:46:23.000Z,22.70
2017-11-19T17:48:51.208Z,22.60
2017-11-19T17:51:19.268Z,22.60
2017-11-19T17:53:47.413Z,22.70
2017-11-19T17:56:15.305Z,22.70
2017-11-19T17:58:43.155Z,22.60
2017-11-19T18:01:11.230Z,22.60
2017-11-19T18:03:39.926Z,22.70
2017-11-19T18:06:07.757Z,22.60
2017-11-19T18:08:37.517Z,22.70
2017-11-19T18:11:05.391Z,22.60
2017-11-19T18:17:59.158Z,22.60
2017-11-19T18:20:27.571Z,22.60
2017-11-19T18:22:56.282Z,22.40
2017-11-19T18:25:24.223Z,22.30
2017-11-19T18:27:54.095Z,22.30
2017-11-19T18:32:56.868Z,22.30
2017-11-19T18:38:27.758Z,22.10
2017-11-19T18:40:56.755Z,22.10
2017-11-19T18:43:27.601Z,22.10
2017-11-19T18:45:57.980Z,22.20
2017-11-19T18:48:25.989Z,22.10
2017-11-19T18:50:54.938Z,22.20
2017-11-19T18:53:22.951Z,22.20
2017-11-19T18:55:50.740Z,22.00
2017-11-19T18:58:19.543Z,21.90
2017-11-19T19:00:47.479Z,21.90
2017-11-19T19:03:15.347Z,22.00
2017-11-19T19:05:43.185Z,22.00
2017-11-19T19:08:12.754Z,22.00
2017-11-19T19:10:40.891Z,21.70
2017-11-19T19:13:08.819Z,21.60
2017-11-19T19:15:36.641Z,21.50
2017-11-19T19:18:05.393Z,21.60
2017-11-19T19:20:33.263Z,21.70
2017-11-19T19:23:01.094Z,21.70
2017-11-19T19:25:29.642Z,21.50
2017-11-19T19:27:57.483Z,21.50
2017-11-19T19:30:25.331Z,21.50
2017-11-19T19:32:53.248Z,21.50
2017-11-19T19:35:22.005Z,21.60
2017-11-19T19:37:51.050Z,21.50
2017-11-19T19:40:18.848Z,21.50
2017-11-19T19:42:47.465Z,21.50
2017-11-19T19:45:15.298Z,21.40
2017-11-19T19:47:43.144Z,21.40
2017-11-19T19:50:11.076Z,21.40
2017-11-19T19:52:38.885Z,21.50
2017-11-19T19:55:06.656Z,21.40
2017-11-19T19:57:35.969Z,21.30
2017-11-19T20:00:05.410Z,21.20
2017-11-19T20:02:33.884Z,21.20
2017-11-19T20:05:01.872Z,21.20
2017-11-19T20:07:29.908Z,21.20
2017-11-19T20:09:58.771Z,21.20
2017-11-19T20:12:28.123Z,21.10
2017-11-19T20:14:56.622Z,21.10
2017-11-19T20:17:25.590Z,21.10
2017-11-19T20:19:54.013Z,21.10
2017-11-19T20:22:21.823Z,21.10
2017-11-19T20:24:50.072Z,21.00
2017-11-19T20:27:18.351Z,21.00
2017-11-19T20:29:47.649Z,21.00
2017-11-19T20:32:16.403Z,21.00
2017-11-19T20:34:44.986Z,20.90
2017-11-19T20:37:13.091Z,20.90
2017-11-19T20:39:41.512Z,20.80
2017-11-19T20:42:09.450Z,20.80
2017-11-19T20:44:38.232Z,20.80
2017-11-19T20:47:06.051Z,20.80
2017-11-19T20:49:33.988Z,20.80
2017-11-19T20:52:02.172Z,20.90
2017-11-19T20:54:31.170Z,20.90
2017-11-19T20:56:59.492Z,20.90
2017-11-19T20:59:28.674Z,20.90
2017-11-19T21:01:56.650Z,20.90
2017-11-19T21:04:26.039Z,20.90
2017-11-19T21:06:54.471Z,21.00
2017-11-19T21:09:23.663Z,21.00
2017-11-19T21:11:53.006Z,21.00
2017-11-19T21:14:22.019Z,21.10
2017-11-19T21:16:51.185Z,21.10
2017-11-19T21:19:20.458Z,21.20
2017-11-19T21:21:49.537Z,21.30
2017-11-19T21:24:19.094Z,21.20
2017-11-19T21:26:47.230Z,21.30
2017-11-19T21:29:15.904Z,21.30
2017-11-19T21:31:43.735Z,21.30
2017-11-19T21:34:11.568Z,21.30
2017-11-19T21:36:39.420Z,21.30
2017-11-19T21:39:08.011Z,21.30
2017-11-19T21:41:35.790Z,21.30
2017-11-19T21:44:03.744Z,21.40
2017-11-19T21:46:31.577Z,21.30
2017-11-19T21:48:59.345Z,21.30
2017-11-19T21:51:27.204Z,21.30
2017-11-19T21:53:55.193Z,21.20
2017-11-19T21:56:22.976Z,21.20
2017-11-19T21:58:50.842Z,21.10
2017-11-19T22:01:21.629Z,21.00
2017-11-19T22:03:49.496Z,21.00
2017-11-19T22:06:17.436Z,21.00
2017-11-19T22:08:45.233Z,21.00
2017-11-19T22:11:13.011Z,21.00
2017-11-19T22:13:40.962Z,20.90
2017-11-19T22:16:08.770Z,20.90
2017-11-19T22:18:36.537Z,20.80
2017-11-19T22:21:04.380Z,20.80
2017-11-19T22:23:32.154Z,20.80
2017-11-19T22:26:00.030Z,20.80
2017-11-19T22:28:27.837Z,20.70
2017-11-19T22:30:55.641Z,20.70
2017-11-19T22:33:23.384Z,20.70
2017-11-19T22:35:51.312Z,20.70
2017-11-19T22:38:19.059Z,20.60
2017-11-19T22:40:46.914Z,20.60
2017-11-19T22:43:14.696Z,20.60
2017-11-19T22:45:42.571Z,20.60
2017-11-19T22:48:10.413Z,20.50
2017-11-19T22:50:38.374Z,20.50
2017-11-19T22:53:06.204Z,20.50
2017-11-19T22:55:34.055Z,20.50
2017-11-19T22:58:01.821Z,20.40
2017-11-19T23:00:29.582Z,20.40
2017-11-19T23:02:57.390Z,20.40
2017-11-19T23:05:26.004Z,20.30
2017-11-19T23:07:53.847Z,20.30
2017-11-19T23:10:22.472Z,20.30
2017-11-19T23:12:50.314Z,20.30
2017-11-19T23:15:18.209Z,20.30
2017-11-19T23:17:46.047Z,20.30
2017-11-19T23:20:13.895Z,20.20
2017-11-19T23:22:41.651Z,20.20
2017-11-19T23:25:09.488Z,20.10
2017-11-19T23:27:37.319Z,20.10
2017-11-19T23:30:05.101Z,20.10
2017-11-19T23:32:32.973Z,20.10
2017-11-19T23:35:01.521Z,20.00
2017-11-19T23:37:29.447Z,20.00
2017-11-19T23:39:57.288Z,20.10
2017-11-19T23:42:25.097Z,20.10
2017-11-19T23:44:52.873Z,20.00
2017-11-19T23:47:20.696Z,20.00
2017-11-19T23:49:48.483Z,20.00
2017-11-19T23:52:16.434Z,20.10
2017-11-19T23:54:44.228Z,20.00
2017-11-19T23:57:12.077Z,20.10
2017-11-19T23:59:40.134Z,20.00
